Time;durP1;ratioP1;P1;durP2;ratioP2;P2;SDS_P1;SDS_P2;PMS_P1;PMS_P2;Temp;Humidity;BMP_temperature;BMP_pressure;BME280_temperature;BME280_humidity;BME280_pressure;Samples;Min_cycle;Max_cycle;Signal;HPM_P1;HPM_P2
2023/10/16 00:01:26;;;;;;;6.65;3.60;;;;;;;4.19;100.00;102232.75;5068607;28;20486;-48
2023/10/16 00:03:56;;;;;;;7.68;3.72;;;;;;;4.22;100.00;102235.31;5067743;28;20052;-46
2023/10/16 00:06:25;;;;;;;8.45;3.58;;;;;;;4.17;100.00;102234.53;5067685;28;20056;-47
2023/10/16 00:09:00;;;;;;;8.65;3.35;;;;;;;4.19;100.00;102232.75;5068465;28;20411;-48
2023/10/16 00:11:28;;;;;;;7.72;3.67;;;;;;;4.17;100.00;102229.34;5065999;28;20074;-48
2023/10/16 00:13:57;;;;;;;8.32;3.88;;;;;;;4.16;100.00;102234.53;5070722;28;20056;-48
2023/10/16 00:16:28;;;;;;;7.20;4.07;;;;;;;4.12;100.00;102228.53;5068181;28;20048;-48
2023/10/16 00:19:01;;;;;;;9.52;3.83;;;;;;;4.10;100.00;102226.84;5069010;28;20491;-49
2023/10/16 00:21:30;;;;;;;7.78;3.85;;;;;;;4.10;100.00;102226.84;5069746;28;20515;-48
2023/10/16 00:24:00;;;;;;;8.15;4.00;;;;;;;4.07;100.00;102228.59;5067602;28;20131;-47
2023/10/16 00:26:30;;;;;;;9.65;4.13;;;;;;;4.10;100.00;102229.44;5065852;28;20036;-49
2023/10/16 00:29:16;;;;;;;;;;;;;;;4.13;100.00;102232.00;5067486;28;20037;-46
2023/10/16 00:31:51;;;;;;;7.97;3.85;;;;;;;4.12;100.00;102230.25;5069547;28;19927;-45
2023/10/16 00:34:20;;;;;;;9.27;4.47;;;;;;;4.13;100.00;102237.22;5070643;28;20052;-48
2023/10/16 00:36:51;;;;;;;6.75;3.55;;;;;;;4.09;100.00;102236.41;5071550;28;20089;-44
2023/10/16 00:39:22;;;;;;;7.78;3.90;;;;;;;4.09;100.00;102236.41;5068363;28;20052;-45
2023/10/16 00:41:50;;;;;;;8.88;4.20;;;;;;;4.12;100.00;102236.34;5065486;28;20036;-46
2023/10/16 00:44:22;;;;;;;7.80;4.05;;;;;;;4.09;100.00;102226.00;5067464;28;20438;-48
2023/10/16 00:46:53;;;;;;;9.45;4.22;;;;;;;4.14;100.00;102231.97;5066662;28;20526;-48
2023/10/16 00:49:23;;;;;;;8.00;4.20;;;;;;;4.16;100.00;102232.81;5069342;28;20049;-47
2023/10/16 00:51:52;;;;;;;9.35;4.35;;;;;;;4.16;100.00;102230.22;5070351;28;20123;-51
2023/10/16 00:54:28;;;;;;;7.90;4.03;;;;;;;4.13;100.00;102226.78;5067382;28;20053;-46
2023/10/16 00:56:59;;;;;;;7.70;4.28;;;;;;;4.13;100.00;102235.47;5068126;28;20086;-47
2023/10/16 00:59:29;;;;;;;7.82;4.32;;;;;;;4.11;100.00;102219.00;5067866;28;20064;-48
2023/10/16 01:02:07;;;;;;;9.18;4.35;;;;;;;4.12;100.00;102227.66;5065520;28;20057;-48
2023/10/16 01:04:36;;;;;;;10.43;5.00;;;;;;;4.14;100.00;102226.75;5066496;28;20063;-51
2023/10/16 01:07:05;;;;;;;12.48;4.35;;;;;;;4.18;100.00;102224.97;5071654;28;20059;-47
2023/10/16 01:09:36;;;;;;;10.52;5.10;;;;;;;4.17;100.00;102215.44;5071402;28;20050;-50
2023/10/16 01:12:11;;;;;;;9.40;4.82;;;;;;;4.19;100.00;102211.94;5069887;28;20068;-48
2023/10/16 01:14:40;;;;;;;9.13;4.82;;;;;;;4.21;100.00;102212.78;5066563;28;20116;-48
2023/10/16 01:17:09;;;;;;;8.60;4.70;;;;;;;4.20;100.00;102208.44;5067188;28;20044;-48
2023/10/16 01:19:41;;;;;;;9.60;5.00;;;;;;;4.21;100.00;102215.38;5067741;28;20049;-49
2023/10/16 01:22:13;;;;;;;9.80;4.90;;;;;;;4.22;100.00;102211.88;5067299;28;20067;-47
2023/10/16 01:24:46;;;;;;;8.82;4.65;;;;;;;4.23;100.00;102202.31;5065440;28;20188;-50
2023/10/16 01:27:26;;;;;;;11.10;4.80;;;;;;;4.23;100.00;102205.78;5071266;28;20056;-47
2023/10/16 01:29:59;;;;;;;8.85;5.07;;;;;;;4.26;100.00;102198.81;5071105;28;20560;-46
2023/10/16 01:32:29;;;;;;;11.32;4.68;;;;;;;4.20;100.00;102198.03;5070944;28;20152;-47
2023/10/16 01:34:59;;;;;;;9.20;4.63;;;;;;;4.19;100.00;102195.47;5066427;28;20044;-47
2023/10/16 01:37:29;;;;;;;7.53;4.50;;;;;;;4.16;100.00;102193.75;5067285;28;20052;-48
2023/10/16 01:42:42;;;;;;;9.55;4.47;;;;;;;4.18;100.00;102189.38;5067880;28;20036;-49
2023/10/16 01:45:12;;;;;;;9.25;4.50;;;;;;;4.17;100.00;102187.66;5070902;28;20499;-50
2023/10/16 01:47:41;;;;;;;8.32;4.43;;;;;;;4.13;100.00;102186.00;5067162;28;20072;-48
2023/10/16 01:50:21;;;;;;;8.40;4.30;;;;;;;4.16;100.00;102185.94;5065498;28;20056;-48
2023/10/16 01:52:50;;;;;;;9.98;4.95;;;;;;;4.17;100.00;102185.06;5066530;28;20152;-48
2023/10/16 01:55:19;;;;;;;9.80;4.55;;;;;;;4.18;100.00;102181.56;5066022;28;20048;-49
2023/10/16 01:57:50;;;;;;;9.88;4.50;;;;;;;4.19;100.00;102182.44;5067026;28;20494;-48
2023/10/16 02:00:24;;;;;;;8.07;5.07;;;;;;;4.19;100.00;102178.06;5069466;28;20056;-48
2023/10/16 02:02:53;;;;;;;8.65;4.60;;;;;;;4.21;100.00;102178.91;5066246;28;20040;-47
2023/10/16 02:05:22;;;;;;;9.48;5.03;;;;;;;4.18;100.00;102176.34;5069361;28;20049;-48
2023/10/16 02:07:55;;;;;;;9.18;4.25;;;;;;;4.21;100.00;102191.94;5069986;28;20048;-48
2023/10/16 02:10:25;;;;;;;9.68;4.70;;;;;;;4.17;100.00;102182.47;5073245;28;20810;-47
2023/10/16 02:12:53;;;;;;;11.00;4.82;;;;;;;4.15;100.00;102179.00;5074407;28;20064;-46
2023/10/16 02:15:22;;;;;;;8.90;4.43;;;;;;;4.16;100.00;102177.25;5074111;28;20127;-48
2023/10/16 02:17:51;;;;;;;11.82;4.40;;;;;;;4.14;100.00;102179.88;5072251;28;20072;-46
2023/10/16 02:20:20;;;;;;;7.93;4.43;;;;;;;4.15;100.00;102188.56;5070281;28;20365;-47
2023/10/16 02:22:49;;;;;;;9.30;4.28;;;;;;;4.11;100.00;102179.94;5069968;28;20076;-51
2023/10/16 02:25:23;;;;;;;10.35;4.50;;;;;;;4.15;100.00;102179.00;5068385;28;20056;-47
2023/10/16 02:27:54;;;;;;;9.00;3.88;;;;;;;4.16;100.00;102177.25;5072618;28;20052;-48
2023/10/16 02:30:33;;;;;;;8.40;4.03;;;;;;;4.19;100.00;102172.88;5072302;28;20044;-49
2023/10/16 02:33:12;;;;;;;9.02;4.10;;;;;;;4.24;100.00;102165.00;5069386;28;20056;-49
2023/10/16 02:35:42;;;;;;;8.18;4.10;;;;;;;4.26;100.00;102165.81;5069451;28;20078;-47
2023/10/16 02:38:13;;;;;;;8.95;4.40;;;;;;;4.33;100.00;102162.19;5069928;28;20045;-51
2023/10/16 02:40:45;;;;;;;7.82;4.00;;;;;;;4.36;100.00;102162.16;5070486;28;20040;-47
2023/10/16 02:43:20;;;;;;;8.80;4.68;;;;;;;4.38;100.00;102173.41;5073783;28;20049;-47
2023/10/16 02:45:51;;;;;;;8.50;4.10;;;;;;;4.43;100.00;102164.66;5069402;28;20536;-48
2023/10/16 02:48:21;;;;;;;12.97;4.33;;;;;;;4.44;100.00;102164.59;5070186;28;20070;-49
2023/10/16 02:50:56;;;;;;;11.15;4.78;;;;;;;4.48;100.00;102166.28;5070310;28;20048;-49
2023/10/16 02:53:26;;;;;;;12.35;4.60;;;;;;;4.50;100.00;102164.50;5071284;28;20166;-48
2023/10/16 02:55:58;;;;;;;9.20;4.35;;;;;;;4.53;100.00;102169.66;5067224;28;20098;-48
2023/10/16 02:58:29;;;;;;;9.45;4.55;;;;;;;4.61;100.00;102171.25;5068546;28;20388;-49
2023/10/16 03:00:59;;;;;;;11.23;5.03;;;;;;;4.65;100.00;102171.19;5068850;28;20127;-51
2023/10/16 03:03:28;;;;;;;7.15;4.00;;;;;;;4.66;100.00;102164.22;5070081;28;20412;-48
2023/10/16 03:05:59;;;;;;;8.10;4.30;;;;;;;4.67;100.00;102164.19;5068600;28;20086;-49
2023/10/16 03:08:30;;;;;;;9.23;4.88;;;;;;;4.69;100.00;102162.41;5070172;28;20059;-48
2023/10/16 03:11:05;;;;;;;9.15;4.60;;;;;;;4.71;100.00;102157.16;5067610;28;20052;-49
2023/10/16 03:13:35;;;;;;;9.68;4.45;;;;;;;4.73;100.00;102158.84;5069084;28;20048;-48
2023/10/16 03:16:15;;;;;;;10.90;4.38;;;;;;;4.71;100.00;102162.38;5070116;28;20143;-50
2023/10/16 03:18:47;;;;;;;8.45;4.20;;;;;;;4.69;100.00;102164.16;5073128;28;20140;-48
2023/10/16 03:21:31;;;;;;;11.07;4.25;;;;;;;4.69;100.00;102153.72;5073252;28;20048;-47
2023/10/16 03:23:59;;;;;;;7.82;3.88;;;;;;;4.68;100.00;102162.44;5068574;28;20052;-47
2023/10/16 03:26:31;;;;;;;10.25;4.32;;;;;;;4.67;100.00;102163.31;5067277;28;20049;-48
2023/10/16 03:29:02;;;;;;;9.10;3.90;;;;;;;4.63;100.00;102159.06;5066556;28;20048;-48
2023/10/16 03:31:31;;;;;;;9.20;3.50;;;;;;;4.61;100.00;102158.22;5071355;28;20049;-50
2023/10/16 03:33:59;;;;;;;9.45;4.10;;;;;;;4.60;100.00;102151.31;5069304;28;20056;-47
2023/10/16 03:36:28;;;;;;;9.05;4.13;;;;;;;4.60;100.00;102154.78;5069000;28;20102;-48
2023/10/16 03:38:59;;;;;;;8.02;3.90;;;;;;;4.63;100.00;102154.69;5072663;28;20045;-48
2023/10/16 03:41:32;;;;;;;9.20;4.18;;;;;;;4.72;100.00;102153.69;5072777;28;20040;-45
2023/10/16 03:44:07;;;;;;;8.35;4.25;;;;;;;4.74;100.00;102171.00;5067643;28;20053;-47
2023/10/16 03:46:38;;;;;;;9.02;4.13;;;;;;;4.81;100.00;102165.66;5067178;28;20055;-48
2023/10/16 03:49:07;;;;;;;7.43;4.13;;;;;;;4.80;100.00;102177.84;5068213;28;20144;-46
2023/10/16 03:51:39;;;;;;;9.15;4.45;;;;;;;4.82;100.00;102170.84;5067011;28;20090;-45
2023/10/16 03:54:11;;;;;;;7.63;4.15;;;;;;;4.86;100.00;102169.03;5070730;28;20060;-47
2023/10/16 03:56:40;;;;;;;13.68;4.50;;;;;;;4.91;100.00;102169.81;5071088;28;20056;-46
2023/10/16 03:59:11;;;;;;;7.40;3.97;;;;;;;4.94;100.00;102174.13;5067032;28;20126;-46
2023/10/16 04:01:44;;;;;;;11.65;4.88;;;;;;;4.97;100.00;102171.44;5068426;28;20067;-49
2023/10/16 04:04:15;;;;;;;7.57;4.13;;;;;;;5.03;100.00;102171.28;5070152;28;20052;-46
2023/10/16 04:06:44;;;;;;;9.13;4.55;;;;;;;5.05;100.00;102167.75;5070998;28;20080;-47
2023/10/16 04:09:13;;;;;;;8.85;4.45;;;;;;;5.10;100.00;102164.19;5072313;28;20089;-50
2023/10/16 04:11:48;;;;;;;8.38;4.25;;;;;;;5.13;100.00;102165.00;5072271;28;20056;-50
2023/10/16 04:14:18;;;;;;;8.93;4.60;;;;;;;5.17;100.00;102160.59;5072208;28;20814;-48
2023/10/16 04:16:54;;;;;;;11.43;4.88;;;;;;;5.25;100.00;102161.28;5070699;28;20080;-48
2023/10/16 04:19:36;;;;;;;7.78;4.30;;;;;;;5.25;100.00;102153.47;5071768;28;20123;-49
2023/10/16 04:22:09;;;;;;;7.47;4.20;;;;;;;5.27;100.00;102154.25;5067524;28;20220;-47
2023/10/16 04:24:44;;;;;;;9.55;4.78;;;;;;;5.29;100.00;102149.88;5066782;28;20070;-50
2023/10/16 04:27:32;;;;;;;11.82;5.07;;;;;;;5.37;100.00;102139.25;5063999;28;20060;-47
2023/10/16 04:33:08;;;;;;;8.43;4.50;;;;;;;5.41;100.00;102123.53;5067370;28;20532;-50
2023/10/16 04:38:53;;;;;;;9.83;4.90;;;;;;;5.41;100.00;102127.84;5067711;28;20059;-51
2023/10/16 04:42:49;;;;;;;9.93;4.00;;;;;;;5.41;100.00;102122.66;5066173;28;20058;-49
2023/10/16 04:44:23;;;;;;;8.70;4.55;;;;;;;5.39;100.00;102129.66;5067302;28;20449;-47
2023/10/16 04:46:55;;;;;;;8.83;4.23;;;;;;;5.36;100.00;102130.59;5066726;28;20056;-49
2023/10/16 04:49:28;;;;;;;7.55;4.13;;;;;;;5.37;100.00;102121.88;5071498;28;20052;-47
2023/10/16 04:52:06;;;;;;;9.52;4.20;;;;;;;5.38;100.00;102123.56;5071434;28;20106;-49
2023/10/16 04:54:58;;;;;;;7.97;4.22;;;;;;;5.36;100.00;102119.31;5086780;28;20052;-47
2023/10/16 04:57:47;;;;;;;8.13;4.13;;;;;;;5.37;100.00;102108.84;5069905;28;20060;-48
2023/10/16 05:00:54;;;;;;;10.75;5.10;;;;;;;5.33;100.00;102106.31;5071322;28;20128;-47
2023/10/16 05:03:24;;;;;;;10.80;5.70;;;;;;;5.29;100.00;102104.66;5071408;28;20045;-49
2023/10/16 05:06:05;;;;;;;12.32;5.70;;;;;;;5.29;100.00;102105.53;5071390;28;20050;-49
2023/10/16 05:08:38;;;;;;;12.52;4.93;;;;;;;5.27;100.00;102114.28;5070054;28;20053;-50
2023/10/16 05:11:32;;;;;;;8.93;4.55;;;;;;;5.25;100.00;102098.69;5070189;28;20052;-52
2023/10/16 05:14:19;;;;;;;8.57;4.43;;;;;;;5.25;100.00;102107.34;5065855;28;20818;-47
2023/10/16 05:17:06;;;;;;;8.45;4.07;;;;;;;5.22;100.00;102107.44;5067104;28;20052;-49
2023/10/16 05:19:44;;;;;;;8.35;4.45;;;;;;;5.19;100.00;102109.25;5067481;28;20527;-49
2023/10/16 06:15:02;;;;;;;9.32;4.75;;;;;;;5.45;100.00;102119.06;5074230;28;20102;-50
2023/10/16 06:17:30;;;;;;;8.75;5.00;;;;;;;5.49;100.00;102127.69;5072577;28;20127;-47
2023/10/16 06:19:58;;;;;;;9.95;4.82;;;;;;;5.49;100.00;102120.72;5068125;28;20821;-48
2023/10/16 06:22:26;;;;;;;11.00;4.88;;;;;;;5.53;100.00;102127.56;5072593;28;20067;-48
2023/10/16 06:24:56;;;;;;;11.88;5.15;;;;;;;5.56;100.00;102124.03;5073723;28;20492;-49
2023/10/16 06:27:24;;;;;;;7.82;4.40;;;;;;;5.58;100.00;102112.66;5069462;28;20053;-46
2023/10/16 06:29:53;;;;;;;8.38;4.68;;;;;;;5.63;100.00;102116.91;5068473;28;20427;-49
2023/10/16 06:32:25;;;;;;;10.35;5.20;;;;;;;5.67;100.00;102114.22;5070401;28;20040;-48
2023/10/16 06:35:00;;;;;;;9.63;4.78;;;;;;;5.73;100.00;102119.28;5073126;28;20087;-49
2023/10/16 06:37:31;;;;;;;12.40;5.30;;;;;;;5.78;100.00;102118.31;5070632;28;20040;-47
2023/10/16 06:40:04;;;;;;;11.57;5.20;;;;;;;5.80;100.00;102122.59;5070913;28;20048;-51
2023/10/16 06:42:33;;;;;;;10.35;5.25;;;;;;;5.89;100.00;102126.72;5074229;28;20173;-48
2023/10/16 06:45:06;;;;;;;15.48;6.00;;;;;;;5.95;100.00;102120.50;5073673;28;20071;-48
2023/10/16 06:47:36;;;;;;;11.10;5.75;;;;;;;6.00;100.00;102121.25;5073938;28;20526;-48
2023/10/16 06:50:33;;;;;;;12.38;5.70;;;;;;;6.04;100.00;102118.53;5073658;28;20503;-49
2023/10/16 06:53:00;;;;;;;11.73;6.35;;;;;;;6.09;100.00;102126.25;5072353;28;20060;-48
2023/10/16 06:55:30;;;;;;;14.13;6.25;;;;;;;6.15;100.00;102127.84;5073676;28;20076;-48
2023/10/16 06:57:58;;;;;;;14.30;6.45;;;;;;;6.20;100.00;102129.47;5072200;28;20048;-48
2023/10/16 07:00:27;;;;;;;11.32;6.18;;;;;;;6.25;100.00;102134.56;5073553;28;20123;-47
2023/10/16 07:02:57;;;;;;;12.23;6.55;;;;;;;6.29;100.00;102132.72;5072090;28;20052;-47
2023/10/16 07:05:42;;;;;;;11.57;6.18;;;;;;;6.31;100.00;102136.16;5071413;28;20135;-48
2023/10/16 07:08:11;;;;;;;15.90;5.93;;;;;;;6.36;100.00;102131.66;5068442;28;20052;-47
2023/10/16 07:10:48;;;;;;;11.38;6.07;;;;;;;6.41;100.00;102121.94;5072247;28;20038;-50
2023/10/16 07:13:27;;;;;;;9.98;5.90;;;;;;;6.47;100.00;102132.22;5073444;28;20403;-46
2023/10/16 07:15:59;;;;;;;13.05;6.13;;;;;;;6.56;100.00;102129.34;5070035;28;20062;-48
2023/10/16 07:18:31;;;;;;;12.15;6.25;;;;;;;6.58;100.00;102124.06;5068899;28;20383;-48
2023/10/16 07:21:07;;;;;;;13.33;6.63;;;;;;;6.63;100.00;102135.28;5071559;28;20068;-48
2023/10/16 07:23:36;;;;;;;11.00;6.63;;;;;;;6.70;100.00;102128.97;5068359;28;20059;-51
2023/10/16 07:26:09;;;;;;;12.02;6.00;;;;;;;6.73;100.00;102130.63;5067661;28;20048;-49
2023/10/16 07:28:41;;;;;;;13.27;6.20;;;;;;;6.78;100.00;102136.59;5070908;28;20045;-47
2023/10/16 07:31:12;;;;;;;13.80;6.82;;;;;;;6.82;100.00;102133.00;5072987;28;20090;-49
2023/10/16 07:33:45;;;;;;;11.68;6.28;;;;;;;6.89;100.00;102133.69;5072853;28;20075;-49
2023/10/16 07:36:13;;;;;;;13.57;6.65;;;;;;;6.95;100.00;102143.94;5073183;28;20375;-48
2023/10/16 07:38:42;;;;;;;12.50;6.00;;;;;;;6.99;100.00;102135.09;5072898;28;20050;-50
2023/10/16 07:41:18;;;;;;;12.18;6.32;;;;;;;7.05;100.00;102149.78;5072836;28;20040;-48
2023/10/16 07:43:47;;;;;;;13.45;6.45;;;;;;;7.11;100.00;102152.19;5069294;28;20733;-48
2023/10/16 07:46:26;;;;;;;9.75;5.95;;;;;;;7.19;100.00;102142.38;5069314;28;20542;-47
2023/10/16 07:48:54;;;;;;;10.20;6.20;;;;;;;7.33;100.00;102141.09;5072887;28;20044;-51
2023/10/16 07:51:25;;;;;;;12.20;6.07;;;;;;;7.60;100.00;102148.06;5072558;28;20040;-49
2023/10/16 07:53:56;;;;;;;12.30;6.68;;;;;;;7.87;100.00;102140.22;5072614;28;20436;-48
2023/10/16 07:56:33;;;;;;;12.30;7.35;;;;;;;8.16;100.00;102138.38;5066946;28;20816;-48
2023/10/16 07:59:09;;;;;;;11.65;6.95;;;;;;;8.43;100.00;102143.59;5068577;28;20399;-48
2023/10/16 08:01:45;;;;;;;13.35;6.68;;;;;;;8.62;100.00;102143.81;5072124;28;20040;-47
2023/10/16 08:04:27;;;;;;;10.45;5.95;;;;;;;8.75;100.00;102142.47;5071368;28;20110;-47
2023/10/16 08:07:04;;;;;;;11.05;5.78;;;;;;;8.79;100.00;102138.81;5071080;28;20475;-47
2023/10/16 08:12:34;;;;;;;11.25;5.50;;;;;;;8.96;100.00;102137.31;5067221;28;20128;-46
2023/10/16 08:15:14;;;;;;;9.63;5.22;;;;;;;9.17;100.00;102138.25;5067300;28;20519;-48
2023/10/16 08:17:45;;;;;;;10.80;4.70;;;;;;;9.35;100.00;102143.72;5066510;28;20052;-45
2023/10/16 08:20:17;;;;;;;12.75;5.43;;;;;;;9.47;100.00;102143.22;5067525;28;20388;-47
2023/10/16 08:22:47;;;;;;;11.50;5.80;;;;;;;9.54;100.00;102144.69;5067814;28;20461;-48
2023/10/16 08:28:18;;;;;;;9.15;5.10;;;;;;;9.85;100.00;102140.81;5066925;28;20041;-46
2023/10/16 08:30:51;;;;;;;9.45;4.85;;;;;;;10.02;100.00;102144.50;5067441;28;20047;-47
2023/10/16 08:33:28;;;;;;;8.32;4.28;;;;;;;10.11;100.00;102150.22;5070187;28;20047;-46
2023/10/16 08:35:59;;;;;;;8.30;4.20;;;;;;;10.15;100.00;102146.56;5067124;28;20048;-47
2023/10/16 08:38:32;;;;;;;8.90;4.68;;;;;;;10.29;100.00;102145.97;5067783;28;20048;-46
2023/10/16 08:41:07;;;;;;;7.10;4.10;;;;;;;10.38;100.00;102146.53;5067516;28;20052;-47
2023/10/16 08:43:54;;;;;;;13.30;4.78;;;;;;;10.48;100.00;102146.06;5069017;28;20053;-45
2023/10/16 08:46:31;;;;;;;9.13;4.88;;;;;;;10.54;100.00;102152.84;5066058;28;20062;-46
2023/10/16 08:49:02;;;;;;;10.45;4.30;;;;;;;10.48;100.00;102153.09;5070294;28;20456;-47
2023/10/16 08:51:31;;;;;;;10.82;4.65;;;;;;;10.39;100.00;102156.97;5067575;28;20128;-45
2023/10/16 08:54:02;;;;;;;8.57;4.35;;;;;;;10.52;100.00;102157.28;5065757;28;20048;-47
2023/10/16 08:56:30;;;;;;;10.13;4.65;;;;;;;10.60;100.00;102155.16;5065727;28;20527;-45
2023/10/16 08:59:04;;;;;;;9.70;4.72;;;;;;;10.71;100.00;102165.22;5065325;28;20460;-47
2023/10/16 09:01:33;;;;;;;7.53;4.35;;;;;;;10.86;100.00;102158.41;5066658;28;20052;-46
2023/10/16 09:04:05;;;;;;;11.73;5.30;;;;;;;10.95;100.00;102155.38;5071375;28;20048;-50
2023/10/16 09:06:36;;;;;;;10.63;4.40;;;;;;;10.92;100.00;102163.41;5067755;28;20776;-47
2023/10/16 09:09:13;;;;;;;9.02;4.18;;;;;;;11.07;100.00;102167.13;5067506;28;20040;-46
2023/10/16 09:11:41;;;;;;;12.13;3.90;;;;;;;11.02;100.00;102161.19;5063823;28;20094;-46
2023/10/16 09:14:17;;;;;;;8.80;4.10;;;;;;;11.07;100.00;102166.25;5066356;28;20048;-48
2023/10/16 09:16:51;;;;;;;10.48;3.75;;;;;;;11.09;100.00;102167.03;5069561;28;20063;-47
2023/10/16 09:19:26;;;;;;;8.50;3.35;;;;;;;11.15;100.00;102167.63;5071735;28;20470;-45
2023/10/16 09:21:55;;;;;;;8.27;3.05;;;;;;;11.23;100.00;102163.75;5070868;28;20056;-49
2023/10/16 09:24:24;;;;;;;6.47;3.42;;;;;;;11.15;100.00;102166.75;5072445;28;20488;-49
2023/10/16 09:26:54;;;;;;;8.90;3.20;;;;;;;11.26;100.00;102177.66;5075376;28;20517;-49
2023/10/16 09:29:26;;;;;;;10.80;3.35;;;;;;;11.27;100.00;102174.06;5075518;28;20430;-48
2023/10/16 09:31:55;;;;;;;9.05;2.95;;;;;;;11.36;100.00;102170.16;5072121;28;20055;-45
2023/10/16 09:34:27;;;;;;;8.52;2.88;;;;;;;11.42;100.00;102169.84;5071013;28;20147;-46
2023/10/16 09:39:39;;;;;;;7.43;2.70;;;;;;;11.82;100.00;102167.06;5071480;28;20430;-46
2023/10/16 09:42:12;;;;;;;5.35;1.20;;;;;;;11.92;100.00;102164.84;5069122;28;20499;-45
2023/10/16 09:44:44;;;;;;;2.92;1.20;;;;;;;12.03;100.00;102162.56;5070474;28;20052;-45
2023/10/16 09:47:30;;;;;;;5.25;1.20;;;;;;;12.10;100.00;102165.72;5070181;28;20136;-45
2023/10/16 09:50:00;;;;;;;4.22;1.17;;;;;;;12.08;100.00;102159.66;5070520;28;20067;-45
2023/10/16 09:52:31;;;;;;;5.22;1.25;;;;;;;12.08;100.00;102157.03;5074808;28;20037;-46
2023/10/16 09:55:00;;;;;;;4.75;1.10;;;;;;;12.26;100.00;102156.09;5074956;28;20491;-47
2023/10/16 09:57:30;;;;;;;4.15;0.95;;;;;;;12.22;100.00;102159.00;5073239;28;20048;-45
2023/10/16 10:00:23;;;;;;;3.58;0.90;;;;;;;12.35;100.00;102146.84;5073735;28;20064;-47
2023/10/16 10:02:52;;;;;;;4.20;0.90;;;;;;;12.41;100.00;102161.53;5070481;28;20076;-45
2023/10/16 10:05:34;;;;;;;3.92;1.35;;;;;;;12.32;100.00;102158.44;5073437;28;20044;-47
2023/10/16 10:08:15;;;;;;;5.72;1.30;;;;;;;12.46;100.00;102155.06;5074573;28;20074;-45
2023/10/16 10:14:09;;;;;;;3.42;1.27;;;;;;;12.58;100.00;102158.84;5071282;28;20036;-49
2023/10/16 10:16:45;;;;;;;2.97;1.13;;;;;;;12.79;100.00;102164.78;5069720;28;20114;-47
2023/10/16 10:19:31;;;;;;;4.95;1.20;;;;;;;12.99;100.00;102163.72;5069722;28;20060;-48
2023/10/16 10:22:06;;;;;;;5.10;1.40;;;;;;;13.25;100.00;102163.19;5072718;28;20041;-47
2023/10/16 10:24:37;;;;;;;4.15;1.48;;;;;;;13.43;100.00;102161.34;5070660;28;20052;-47
2023/10/16 10:27:11;;;;;;;5.97;1.50;;;;;;;13.69;100.00;102157.25;5067680;28;20126;-47
2023/10/16 10:29:43;;;;;;;4.47;1.23;;;;;;;13.74;100.00;102159.59;5072054;28;20402;-47
2023/10/16 10:32:15;;;;;;;6.90;1.70;;;;;;;13.90;100.00;102149.84;5070006;28;20048;-48
2023/10/16 10:34:45;;;;;;;7.85;1.65;;;;;;;14.15;100.00;102162.47;5072623;28;20536;-48
2023/10/16 10:37:51;;;;;;;1.98;1.02;;;;;;;14.28;100.00;102164.38;5070127;28;20049;-47
2023/10/16 10:40:22;;;;;;;3.88;1.10;;;;;;;14.73;100.00;102159.06;5069885;28;20048;-50
2023/10/16 10:42:55;;;;;;;6.50;1.25;;;;;;;14.83;100.00;102157.53;5068699;28;20491;-47
2023/10/16 10:45:33;;;;;;;5.68;1.38;;;;;;;15.08;100.00;102162.16;5068281;28;20064;-46
2023/10/16 10:48:10;;;;;;;4.88;1.30;;;;;;;15.24;100.00;102158.50;5069411;28;20041;-49
2023/10/16 10:50:39;;;;;;;6.40;1.30;;;;;;;15.31;100.00;102146.56;5068053;28;20151;-47
2023/10/16 10:53:13;;;;;;;3.72;1.10;;;;;;;15.34;100.00;102141.91;5069540;28;20044;-48
2023/10/16 10:55:56;;;;;;;2.72;0.70;;;;;;;15.68;100.00;102142.34;5068475;28;20101;-47
2023/10/16 10:58:31;;;;;;;3.95;0.77;;;;;;;15.79;100.00;102138.13;5072341;28;20055;-48
2023/10/16 11:01:16;;;;;;;3.25;0.93;;;;;;;16.00;100.00;102138.53;5073477;28;20047;-47
2023/10/16 11:03:47;;;;;;;3.90;0.80;;;;;;;16.08;100.00;102133.56;5073422;28;20047;-47
2023/10/16 11:06:17;;;;;;;1.63;0.68;;;;;;;16.28;100.00;102131.31;5072221;28;21163;-50
2023/10/16 11:08:48;;;;;;;2.25;0.68;;;;;;;16.42;100.00;102130.38;5073545;28;20048;-50
2023/10/16 11:11:17;;;;;;;3.90;0.80;;;;;;;16.52;100.00;102120.81;5068850;28;20049;-48
2023/10/16 11:13:47;;;;;;;3.90;0.70;;;;;;;16.56;100.00;102114.31;5069024;28;20051;-47
2023/10/16 11:16:15;;;;;;;5.57;0.70;;;;;;;16.41;100.00;102116.25;5072078;28;20067;-46
2023/10/16 11:18:59;;;;;;;2.30;0.50;;;;;;;16.21;100.00;102118.50;5068484;28;20055;-48
2023/10/16 11:21:28;;;;;;;6.05;0.90;;;;;;;16.21;100.00;102112.31;5068970;28;20045;-48
2023/10/16 11:24:00;;;;;;;1.80;0.60;;;;;;;16.26;100.00;102117.31;5067493;28;20056;-49
2023/10/16 11:26:29;;;;;;;4.65;0.82;;;;;;;16.03;100.00;102111.78;5067586;28;20106;-50
2023/10/16 11:29:00;;;;;;;3.15;0.70;;;;;;;15.98;100.00;102117.41;5070312;28;20106;-47
2023/10/16 11:31:28;;;;;;;3.15;0.70;;;;;;;15.92;100.00;102116.97;5071424;28;20527;-47
2023/10/16 11:34:02;;;;;;;2.80;0.50;;;;;;;15.77;100.00;102116.19;5066916;28;20121;-49
2023/10/16 11:36:34;;;;;;;3.13;0.80;;;;;;;15.70;100.00;102108.63;5068254;28;20083;-48
2023/10/16 11:39:19;;;;;;;3.33;0.82;;;;;;;15.63;100.00;102117.09;5071788;28;20044;-48
2023/10/16 11:41:51;;;;;;;3.15;0.80;;;;;;;15.49;100.00;102110.06;5072634;28;20106;-46
2023/10/16 11:44:25;;;;;;;2.67;0.60;;;;;;;15.43;100.00;102107.81;5071386;28;20074;-47
2023/10/16 11:46:55;;;;;;;2.53;0.60;;;;;;;15.25;100.00;102100.09;5071247;28;20056;-46
2023/10/16 11:49:32;;;;;;;2.78;0.70;;;;;;;15.31;100.00;102109.47;5069922;28;20517;-47
2023/10/16 11:52:19;;;;;;;4.45;1.08;;;;;;;15.24;100.00;102100.22;5066703;28;20049;-46
2023/10/16 11:54:48;;;;;;;2.88;0.73;;;;;;;15.07;100.00;102106.63;5070185;28;20064;-47
2023/10/16 11:57:17;;;;;;;4.38;0.77;;;;;;;14.92;100.00;102098.69;5065528;28;20055;-46
2023/10/16 11:59:51;;;;;;;6.55;0.88;;;;;;;14.85;100.00;102100.03;5071060;28;20045;-47
2023/10/16 12:02:22;;;;;;;4.40;0.77;;;;;;;14.84;100.00;102093.88;5067520;28;20051;-46
2023/10/16 12:04:54;;;;;;;4.35;1.05;;;;;;;14.73;100.00;102088.41;5067926;28;20048;-48
2023/10/16 12:07:22;;;;;;;4.45;0.70;;;;;;;14.69;100.00;102082.44;5068215;28;20045;-47
2023/10/16 12:09:51;;;;;;;3.03;0.70;;;;;;;14.79;100.00;102087.16;5067983;28;20049;-49
2023/10/16 12:12:20;;;;;;;3.92;0.57;;;;;;;14.70;100.00;102076.22;5066953;28;20533;-48
2023/10/16 12:14:50;;;;;;;2.72;0.68;;;;;;;14.61;100.00;102087.34;5067053;28;20403;-47
2023/10/16 12:17:21;;;;;;;3.85;0.80;;;;;;;14.67;100.00;102081.72;5072249;28;20052;-47
2023/10/16 12:19:51;;;;;;;3.45;1.08;;;;;;;14.65;100.00;102088.03;5070908;28;20056;-49
2023/10/16 12:22:41;;;;;;;2.72;0.70;;;;;;;14.60;100.00;102077.72;5069696;28;20522;-48
2023/10/16 12:25:09;;;;;;;3.95;0.60;;;;;;;14.51;100.00;102083.59;5067422;28;20080;-50
2023/10/16 12:27:38;;;;;;;5.63;0.63;;;;;;;14.56;100.00;102078.00;5065358;28;20056;-48
2023/10/16 12:30:13;;;;;;;3.55;0.60;;;;;;;14.53;100.00;102084.31;5068849;28;20041;-48
2023/10/16 12:32:41;;;;;;;4.70;0.95;;;;;;;14.42;100.00;102076.22;5071955;28;20052;-47
2023/10/16 12:35:11;;;;;;;2.13;0.60;;;;;;;14.38;100.00;102070.25;5070622;28;20056;-46
2023/10/16 12:37:42;;;;;;;5.82;0.70;;;;;;;14.37;100.00;102064.13;5071536;28;20062;-50
2023/10/16 12:40:27;;;;;;;5.88;0.75;;;;;;;14.41;100.00;102066.56;5071704;28;20048;-47
2023/10/16 12:42:56;;;;;;;3.67;0.70;;;;;;;14.62;100.00;102067.03;5065059;28;20134;-50
2023/10/16 12:45:28;;;;;;;5.28;0.80;;;;;;;14.62;100.00;102067.03;5067550;28;20500;-47
2023/10/16 12:47:58;;;;;;;3.25;0.70;;;;;;;14.58;100.00;102060.22;5067191;28;20049;-47
2023/10/16 12:50:29;;;;;;;4.32;0.73;;;;;;;14.72;100.00;102059.38;5070607;28;20495;-47
2023/10/16 12:53:01;;;;;;;1.88;0.65;;;;;;;14.73;100.00;102061.94;5067239;28;20080;-49
2023/10/16 12:55:31;;;;;;;2.75;0.75;;;;;;;14.89;100.00;102053.88;5066889;28;20449;-47
2023/10/16 12:58:00;;;;;;;5.38;1.15;;;;;;;14.95;100.00;102057.91;5066563;28;20135;-47
2023/10/16 13:00:30;;;;;;;4.20;0.90;;;;;;;14.85;100.00;102060.31;5067524;28;20052;-46